Winfield, AL (35594)

5:31 PM CDT on October 22, 2014 (GMT -0500)
Vernon Alabama | Change Station
CLOSE
Current Station
Personal Weather Station
Location: Sulligent, AL
Elevation: 372 ft
Nearby Weather Stations

Elev 372 ft 33.79 °N, 88.21 °W | Updated 15 minutes ago

Clear
Clear
69.7 °F
Feels Like 69.7 °F
N
0.0
Wind Variable Wind from ENE
Gusts 4.0 mph

Today
High -- | Low -- °F
--% Chance of Precip.
Yesterday
High -- | Low -- °F
Precip. -- in
7:01 AM 6:08 PM
Waning Crescent, 1% visible
Pressure 30.16 in
Visibility 2.5 miles
Clouds Clear
Dew Point 50 °F
Humidity 50%
Rainfall 0.00 in
Snow Depth Not available.
UV 0 out of 12
Pollen 1.90 out of 12
PM2.5 Good
Flu Activity Sporadic
SPECI K1M4 222226Z AUTO 00000KT 2 1/2SM HZ CLR 17/06 A3016 RMK AO2

More Conditions Fewer Conditions

Pressure 30.16 in
Visibility 2.5 miles
Clouds Clear
Dew Point 50 °F
Humidity 50%
Rainfall 0.00 in
Snow Depth Not available.
UV 0 out of 12
Pollen 1.90 out of 12
PM2.5 Good
Flu Activity Sporadic
SPECI K1M4 222226Z AUTO 00000KT 2 1/2SM HZ CLR 17/06 A3016 RMK AO2

More Conditions Fewer Conditions

10-Day Weather Forecast

Almanac

Astronomy

Oct. 22, 2014 Rise Set
Actual Time 7:01 AM CDT 6:08 PM CDT
Civil Twilight 6:36 AM CDT 6:34 PM CDT
Nautical Twilight 6:07 AM CDT 7:03 PM CDT
Astronomical Twilight 5:38 AM CDT 7:32 PM CDT
Moon 5:46 AM CDT 5:33 PM CDT
Length of Visible Light 11h 57m
Length of Day
11h 06m
Tomorrow will be 1m 58s shorter.
Waning Crescent, 1% of the Moon is Illuminated
Today
Waning Crescent
Oct 23
New
Oct 30
First Quarter
Nov 6
Full
Nov 14
Last Quarter

Today's Extremes

State Highs State Lows

Community

WunderPhotos

Upload Photos

1,764,065 photos uploaded!

WunderBlogs® & News

Nearby

Air Quality

  Air Quality AQ Index Pollutant
Yesterday Good
PM10
Yesterday Good
OZONE
Current Good
PM2.5
Wednesday Good
PM2.5
Thursday Good
PM2.5

Snow Depth

Station Depth Elevation
No new snow has been reported.

Earthquake Activity

City Distance Mag. Time & Date
No recent earthquake activity has been reported nearby.
Minimum magnitude displayed is 2.5.

Coastal Water Temperatures

Place Temperature
No Stations Reporting

Nearby Weather Stations